AirNav   Everest Fuels
 
 1148 users online  

22CA Commodore Center Seaplane Base
Sausalito, California, USA

GOING TO SAUSALITO?


FAA INFORMATION EFFECTIVE 18 JUNE 2020

Location

FAA Identifier: 22CA
Lat/Long: 37-52-47.7350N 122-30-48.9060W
37-52.795583N 122-30.815100W
37.8799264,-122.5135850
(estimated)
Elevation: 0 ft. / 0 m (estimated)
Variation: 16E (1985)
From city: 2 miles NW of SAUSALITO, CA
Time zone: UTC -7 (UTC -8 during Standard Time)
Zip code: 94965

Seaplane Base Operations

Seaplane Base use: Private use. Permission required prior to landing
Activation date: 04/1949
Control tower: no
ARTCC: OAKLAND CENTER
FSS: OAKLAND FLIGHT SERVICE STATION
Attendance: 0830-DUSK
Pattern altitude: 800 ft. MSL
Wind indicator: yes
Segmented circle: no

Seaplane Base Communications

WX AWOS-AV at 18CN (9 nm SE): 119.925 (415-514-4209)
WX AWOS-3P at DVO (16 nm N): 120.675 (415-897-2236)
WX ASOS at OAK (17 nm SE): PHONE 510-214-1776
WX ASOS at SFO (17 nm SE): PHONE 650-827-8593

Nearby radio navigation aids

VOR radial/distance  VOR name  Freq  Var
SAUr359/1.5SAUSALITO VOR/DME116.2017E
OAKr287/16.6OAKLAND VOR/DME116.8017E
SFOr320/17.0SAN FRANCISCO VOR/DME115.8017E
SGDr183/19.2SCAGGS ISLAND VORTAC112.1017E
PYEr109/20.6POINT REYES VOR/DME113.7017E
CCRr229/24.3CONCORD VOR/DME117.0017E
OSIr322/31.3WOODSIDE VOR/DME113.9017E

Seaplane Base Services

Fuel available: 100LL
FUEL SALE TO TRANSIENTS RESTRICTED TO EMERGENCY ONLY.
Bottled oxygen: NONE
Bulk oxygen: NONE

Runway Information

Runway 11W/29W

Dimensions: 10000 x 2400 ft. / 3048 x 732 m
Surface: water
RUNWAY 11W  RUNWAY 29W
Traffic pattern: leftleft
Obstructions: 50 ft. bridge, 1500 ft. from runway, 200 ft. right of centerline, 30:1 slope to clear150 ft. hill, 3000 ft. from runway, 300 ft. right of centerline, 20:1 slope to clear

Seaplane Base Ownership and Management from official FAA records

Ownership: Privately-owned
Owner: SAN FRANCISCO SEAPLNE TOURS
242 REDWOOD HIGHWAY
MILL VALLEY, CA 94941
Phone 415-332-4843
Manager: AARON SINGER
242 REDWOOD HIGHWAY
MILL VALLEY, CA 94941
Phone 415-332-4843

Seaplane Base Operational Statistics

Aircraft based on the field: 4
Single engine airplanes: 4
    
Aircraft operations: avg 48/week *
100% local general aviation
<1% transient general aviation
* for 12-month period ending 15 January 2001

Additional Remarks

SEAPLANE LANE NOT MARKED.
BE ALERT NUMEROUS DRIFT WOOD PILES & DERELICT/SUNKEN VESSELS (RY 29).
FOR CD CTC NORCAL APCH AT 916-361-0519.

Instrument Procedures

There are no published instrument procedures at 22CA.

Some nearby airports with instrument procedures:

KDVO - Gnoss Field Airport (16 nm N)
KOAK - Metropolitan Oakland International Airport (17 nm SE)
KSFO - San Francisco International Airport (17 nm SE)
KHAF - Half Moon Bay Airport (22 nm S)
KCCR - Buchanan Field Airport (23 nm E)
 
Loc | Ops | Rwys | IFR | FBO | Links
Com | Nav | Svcs | Stats | Notes

Sonoma Jet Center
 
Area around 22CA (Commodore Center Seaplane Base)
 
Road maps at: MapQuest Bing Google
 
Aerial photo
No photo
 
Sectional chart

 
Airport distance calculator
Flying to Commodore Center Seaplane Base? Find the distance to fly.

From to 22CA

Sunrise and sunset
Times for 02-Jul-2020
 Local
(UTC-7)
 Zulu
(UTC)
Morning civil twilight05:2212:22
Sunrise05:5312:53
Sunset20:3503:35
Evening civil twilight21:0604:06

Current date and time
Zulu (UTC)  02-Jul-2020 21:22:37
Local (UTC-7)  02-Jul-2020 14:22:37
 
METAR
KDVO 
16nm N 
022055Z AUTO 03008KT 10SM CLR 26/12 A2987 RMK AO2
KSFO 
17nm SE 
022056Z VRB04KT 10SM FEW005 21/12 A2989 RMK AO2 SLP123 T02060117 55001
KOAK 
18nm SE 
022053Z 30007KT 10SM FEW017 23/11 A2990 RMK AO2 SLP124 T02330111 58002
KHAF 
22nm S 
022100Z AUTO 19017G22KT 5SM HZ CLR 16/12 A2994 RMK AO2
KAPC 
22nm NE 
022054Z 20015KT 10SM CLR 22/12 A2988 RMK AO2 SLP110 T02220117 58004
KHWD 
23nm SE 
022054Z 28009KT 10SM CLR 22/11 A2989 RMK AO2 SLP129 T02220106 58004
KO69 
23nm N 
022055Z AUTO VRB05KT 7SM CLR 24/14 A2989 RMK A01
KCCR 
23nm E 
022053Z 26011G16KT 10SM CLR 26/11 A2985 RMK AO2 SLP096 T02610106 57006
KSQL 
25nm SE 
022047Z 35009KT 10SM SKC 20/13 A2990
KPAO 
31nm SE 
022047Z 35010KT 10SM SKC 22/13 A2988
TAF
KSFO 
17nm SE 
021735Z 0218/0324 02004KT P6SM FEW015 FM022100 26015KT P6SM FEW015 FM030400 26012KT P6SM SCT010 FM030800 26010KT P6SM BKN012 FM031700 26006KT P6SM SCT015 FM032100 27017KT P6SM FEW015
KOAK 
18nm SE 
021735Z 0218/0324 25007KT P6SM FEW015 FM022100 29014KT P6SM SKC FM030300 30008KT P6SM SCT015 FM030500 26005KT P6SM BKN012 FM031200 27006KT P6SM OVC012 FM031800 28010KT P6SM FEW015 FM032100 28013KT P6SM SKC
NOTAMs
Click for the latest NOTAMs
NOTAMs are issued by the DoD/FAA and will open in a separate window not controlled by AirNav.

 

 
 

Would you like to see your business listed on this page?

 If your business provides an interesting product or service to pilots, flight crews, aircraft, or users of the Commodore Center Seaplane Base, you should consider listing it here.  To start the listing process, click on the button below
 
Add a business
 

Other Pages about Commodore Center Seaplane Base

Update a link
 
Copyright © AirNav, LLC. All rights reserved. Privacy Policy  Contact